Time;durP1;ratioP1;P1;durP2;ratioP2;P2;SDS_P1;SDS_P2;PMS_P1;PMS_P2;Temp;Humidity;BMP_temperature;BMP_pressure;BME280_temperature;BME280_humidity;BME280_pressure;Samples;Min_cycle;Max_cycle;Signal;HPM_P1;HPM_P2
2023/11/22 00:01:04;;;;;;;4.00;3.25;;;;;;;;;;4976753;28;20285;-77
2023/11/22 00:03:31;;;;;;;4.65;4.25;;;;;;;;;;4985040;28;20034;-77
2023/11/22 00:05:57;;;;;;;4.57;4.28;;;;;;;;;;4992177;28;20038;-77
2023/11/22 00:08:23;;;;;;;6.35;5.93;;;;;;;;;;4992477;28;20097;-77
2023/11/22 00:10:49;;;;;;;4.80;4.25;;;;;;;;;;4992152;28;20461;-78
2023/11/22 00:13:16;;;;;;;3.58;3.28;;;;;;;;;;4970406;28;20456;-78
2023/11/22 00:15:42;;;;;;;4.57;4.18;;;;;;;;;;4996156;28;20051;-76
2023/11/22 00:18:08;;;;;;;3.78;3.47;;;;;;;;;;4995762;28;20089;-77
2023/11/22 00:20:34;;;;;;;5.00;4.60;;;;;;;;;;4972952;28;20042;-77
2023/11/22 00:23:00;;;;;;;4.65;4.32;;;;;;;;;;4993525;28;20101;-77
2023/11/22 00:25:26;;;;;;;5.60;5.10;;;;;;;;;;4993260;28;20042;-78
2023/11/22 00:27:53;;;;;;;3.75;3.45;;;;;;;;;;4977717;28;20058;-79
2023/11/22 00:30:19;;;;;;;3.53;3.33;;;;;;;;;;4997316;28;20049;-78
2023/11/22 00:32:45;;;;;;;3.28;3.08;;;;;;;;;;4997696;28;20053;-78
2023/11/22 00:35:12;;;;;;;3.05;2.85;;;;;;;;;;4980391;28;20054;-79
2023/11/22 00:37:38;;;;;;;4.03;3.72;;;;;;;;;;4995186;28;20065;-78
2023/11/22 00:40:10;;;;;;;4.05;3.75;;;;;;;;;;4994325;28;20050;-76
2023/11/22 00:42:37;;;;;;;4.85;4.55;;;;;;;;;;4977131;28;20096;-79
2023/11/22 00:45:05;;;;;;;5.57;5.07;;;;;;;;;;4973974;28;20054;-78
2023/11/22 00:47:32;;;;;;;2.22;2.13;;;;;;;;;;4956066;28;20133;-77
2023/11/22 00:49:59;;;;;;;5.68;5.22;;;;;;;;;;4972262;28;20505;-77
2023/11/22 00:52:26;;;;;;;4.43;4.13;;;;;;;;;;4973816;28;20031;-78
2023/11/22 00:54:52;;;;;;;2.97;2.78;;;;;;;;;;4971216;28;20378;-78
2023/11/22 00:57:19;;;;;;;4.10;3.80;;;;;;;;;;4974675;28;20528;-78
2023/11/22 00:59:45;;;;;;;3.55;3.25;;;;;;;;;;4992563;28;20128;-78
2023/11/22 01:02:11;;;;;;;4.70;3.47;;;;;;;;;;4994494;28;20054;-77
2023/11/22 01:04:38;;;;;;;5.32;4.90;;;;;;;;;;4976316;28;20047;-78
2023/11/22 01:07:05;;;;;;;4.93;4.57;;;;;;;;;;4975413;28;20046;-78
2023/11/22 01:09:32;;;;;;;4.90;4.50;;;;;;;;;;4995284;28;20054;-78
2023/11/22 01:11:58;;;;;;;4.88;4.45;;;;;;;;;;4995369;28;20062;-78
2023/11/22 01:14:26;;;;;;;4.28;3.97;;;;;;;;;;4994325;28;20100;-77
2023/11/22 01:16:52;;;;;;;5.90;3.83;;;;;;;;;;4992931;28;20050;-78
2023/11/22 01:19:18;;;;;;;5.50;5.10;;;;;;;;;;4992096;28;20050;-77
2023/11/22 01:21:44;;;;;;;5.63;4.63;;;;;;;;;;4996042;28;20045;-78
2023/11/22 01:24:11;;;;;;;4.25;3.95;;;;;;;;;;4994822;28;20046;-77
2023/11/22 01:26:38;;;;;;;4.10;3.45;;;;;;;;;;4994984;28;20042;-78
2023/11/22 01:29:04;;;;;;;4.80;4.40;;;;;;;;;;4995595;28;20134;-78
2023/11/22 01:31:30;;;;;;;4.07;3.78;;;;;;;;;;5001224;28;20327;-79
2023/11/22 01:33:56;;;;;;;3.28;3.05;;;;;;;;;;5007776;28;20077;-79
2023/11/22 01:36:22;;;;;;;6.05;3.22;;;;;;;;;;5012177;28;20030;-79
2023/11/22 01:38:48;;;;;;;3.47;3.28;;;;;;;;;;5016206;28;20035;-80
2023/11/22 01:41:14;;;;;;;4.05;3.75;;;;;;;;;;5010742;28;20042;-79
2023/11/22 01:43:41;;;;;;;4.18;3.78;;;;;;;;;;5002175;28;20042;-80
2023/11/22 01:46:08;;;;;;;4.47;4.18;;;;;;;;;;4987126;28;20102;-79
2023/11/22 01:48:35;;;;;;;4.28;3.97;;;;;;;;;;4991116;28;20073;-79
2023/11/22 01:51:03;;;;;;;3.70;3.40;;;;;;;;;;5012116;28;20054;-77
2023/11/22 01:53:30;;;;;;;3.60;3.30;;;;;;;;;;5012840;28;20029;-79
2023/11/22 01:55:57;;;;;;;4.63;4.30;;;;;;;;;;4992985;28;20102;-79
2023/11/22 01:58:23;;;;;;;6.53;5.97;;;;;;;;;;4988131;28;20050;-77
2023/11/22 02:00:50;;;;;;;4.20;3.90;;;;;;;;;;5002845;28;20046;-80
2023/11/22 02:03:16;;;;;;;5.32;4.93;;;;;;;;;;4989371;28;20056;-79
2023/11/22 02:05:42;;;;;;;4.38;4.07;;;;;;;;;;5006435;28;20085;-77
2023/11/22 02:08:09;;;;;;;4.13;3.83;;;;;;;;;;5009083;28;20047;-82
2023/11/22 02:10:36;;;;;;;4.88;4.47;;;;;;;;;;5017183;28;20046;-80
2023/11/22 02:13:07;;;;;;;4.93;4.53;;;;;;;;;;5016429;28;20038;-79
2023/11/22 02:15:34;;;;;;;5.63;5.20;;;;;;;;;;5017354;28;20090;-81
2023/11/22 02:18:00;;;;;;;4.75;4.35;;;;;;;;;;5017580;28;20078;-81
2023/11/22 02:20:26;;;;;;;3.85;3.55;;;;;;;;;;5017669;28;20110;-79
2023/11/22 02:22:53;;;;;;;3.78;3.40;;;;;;;;;;5002847;23;20103;-80
2023/11/22 02:28:18;;;;;;;6.57;5.32;;;;;;;;;;5028470;23;20058;-82
2023/11/22 02:30:44;;;;;;;5.97;5.50;;;;;;;;;;5142465;23;20093;-80
2023/11/22 02:33:10;;;;;;;6.57;4.07;;;;;;;;;;5016104;28;20050;-81
2023/11/22 02:35:36;;;;;;;5.60;5.10;;;;;;;;;;4989489;28;20037;-79
2023/11/22 02:38:03;;;;;;;5.55;5.07;;;;;;;;;;4976928;28;20069;-78
2023/11/22 02:40:32;;;;;;;4.70;4.20;;;;;;;;;;4968886;28;20038;-79
2023/11/22 02:42:58;;;;;;;6.43;5.03;;;;;;;;;;4982980;28;20043;-80
2023/11/22 02:45:27;;;;;;;4.75;4.35;;;;;;;;;;4983065;28;20084;-79
2023/11/22 02:47:54;;;;;;;6.30;5.70;;;;;;;;;;4985202;28;20053;-80
2023/11/22 02:50:20;;;;;;;4.47;4.13;;;;;;;;;;4988086;28;20070;-80
2023/11/22 02:52:47;;;;;;;7.45;6.85;;;;;;;;;;4991883;28;20059;-80
2023/11/22 02:55:14;;;;;;;3.78;3.53;;;;;;;;;;4992012;28;20050;-80
2023/11/22 02:57:41;;;;;;;4.72;4.25;;;;;;;;;;4954587;28;20066;-79
2023/11/22 03:00:14;;;;;;;5.55;4.10;;;;;;;;;;4971460;28;20062;-80
2023/11/22 03:02:45;;;;;;;4.03;3.78;;;;;;;;;;4971236;28;20066;-81
2023/11/22 03:05:12;;;;;;;7.10;5.93;;;;;;;;;;4956961;28;20058;-80
2023/11/22 03:07:41;;;;;;;3.97;3.65;;;;;;;;;;4978913;28;20026;-81
2023/11/22 03:10:07;;;;;;;6.07;5.57;;;;;;;;;;4996050;28;20018;-81
2023/11/22 03:12:33;;;;;;;5.55;3.75;;;;;;;;;;5011313;28;20034;-80
2023/11/22 03:15:01;;;;;;;6.32;5.25;;;;;;;;;;5013913;28;20027;-81
2023/11/22 03:17:28;;;;;;;4.95;4.63;;;;;;;;;;5014824;28;20080;-82
2023/11/22 03:19:56;;;;;;;5.20;4.80;;;;;;;;;;5014554;28;20046;-80
2023/11/22 03:22:23;;;;;;;4.93;3.83;;;;;;;;;;4998977;28;20137;-79
2023/11/22 03:24:49;;;;;;;3.90;3.60;;;;;;;;;;5000692;28;20130;-80
2023/11/22 03:27:16;;;;;;;6.25;4.47;;;;;;;;;;5000474;28;20254;-81
2023/11/22 03:29:42;;;;;;;5.70;5.13;;;;;;;;;;4999151;28;20061;-80
2023/11/22 03:32:08;;;;;;;4.25;3.95;;;;;;;;;;5015693;28;20062;-81
2023/11/22 03:34:34;;;;;;;5.70;4.88;;;;;;;;;;5001684;28;20098;-79
2023/11/22 03:36:59;;;;;;;4.75;4.40;;;;;;;;;;4985183;28;20023;-82
2023/11/22 03:39:26;;;;;;;5.38;4.88;;;;;;;;;;4985656;28;20049;-81
2023/11/22 03:41:53;;;;;;;4.35;4.00;;;;;;;;;;5016822;28;20042;-82
2023/11/22 03:44:19;;;;;;;6.68;4.30;;;;;;;;;;5000016;28;20037;-81
2023/11/22 03:46:45;;;;;;;3.67;3.30;;;;;;;;;;5018573;28;20086;-79
2023/11/22 03:49:10;;;;;;;4.20;3.80;;;;;;;;;;5019134;28;20035;-83
2023/11/22 03:51:38;;;;;;;5.85;5.35;;;;;;;;;;4998551;28;20046;-82
2023/11/22 03:54:04;;;;;;;3.40;3.13;;;;;;;;;;5013944;28;20050;-79
2023/11/22 03:56:30;;;;;;;4.85;4.45;;;;;;;;;;4994823;28;20043;-80
2023/11/22 03:58:56;;;;;;;6.65;4.35;;;;;;;;;;4997405;28;20023;-81
2023/11/22 04:01:22;;;;;;;7.07;5.07;;;;;;;;;;5007367;28;20046;-81
2023/11/22 04:03:48;;;;;;;7.22;4.72;;;;;;;;;;5007227;28;20038;-80
2023/11/22 04:06:15;;;;;;;3.78;2.58;;;;;;;;;;5004656;28;20053;-81
2023/11/22 04:08:43;;;;;;;3.60;3.40;;;;;;;;;;5011367;28;20031;-80
2023/11/22 04:11:10;;;;;;;4.55;4.15;;;;;;;;;;4983438;28;20047;-81
2023/11/22 04:13:36;;;;;;;4.50;4.10;;;;;;;;;;4996720;28;20047;-81
2023/11/22 04:16:02;;;;;;;4.05;3.75;;;;;;;;;;4996735;28;20046;-80
2023/11/22 04:18:28;;;;;;;3.65;2.97;;;;;;;;;;4981810;28;20254;-79
2023/11/22 04:20:55;;;;;;;2.92;2.70;;;;;;;;;;4993327;28;20038;-79
2023/11/22 04:23:21;;;;;;;3.60;3.40;;;;;;;;;;4996632;28;20018;-81
2023/11/22 04:25:49;;;;;;;3.13;2.88;;;;;;;;;;4997464;28;20047;-80
2023/11/22 04:28:15;;;;;;;3.17;2.97;;;;;;;;;;5007832;28;20043;-79
2023/11/22 04:30:41;;;;;;;3.13;2.92;;;;;;;;;;4979329;28;20449;-79
2023/11/22 04:33:07;;;;;;;2.40;2.20;;;;;;;;;;4994441;28;20429;-79
2023/11/22 04:35:38;;;;;;;4.30;3.90;;;;;;;;;;4995828;28;20042;-79
2023/11/22 04:38:04;;;;;;;2.88;2.78;;;;;;;;;;4998036;28;20038;-79
2023/11/22 04:40:30;;;;;;;4.15;3.42;;;;;;;;;;4957860;28;20094;-77
2023/11/22 04:42:56;;;;;;;4.55;4.07;;;;;;;;;;4969633;28;20054;-79
2023/11/22 04:45:22;;;;;;;3.25;3.15;;;;;;;;;;4989227;28;20035;-79
2023/11/22 04:47:48;;;;;;;3.28;3.08;;;;;;;;;;4989029;28;20050;-77
2023/11/22 04:50:14;;;;;;;3.50;3.30;;;;;;;;;;4973016;28;20069;-79
2023/11/22 04:52:40;;;;;;;2.58;2.47;;;;;;;;;;4986438;28;20098;-78
2023/11/22 04:55:06;;;;;;;4.15;3.85;;;;;;;;;;4988105;28;20080;-78
2023/11/22 04:57:33;;;;;;;3.17;2.97;;;;;;;;;;4987354;28;20067;-79
2023/11/22 05:00:00;;;;;;;2.42;2.30;;;;;;;;;;4952393;28;20129;-79
2023/11/22 05:02:26;;;;;;;2.28;2.17;;;;;;;;;;4986827;28;20039;-79
2023/11/22 05:04:53;;;;;;;5.30;4.38;;;;;;;;;;4977966;28;20042;-79
2023/11/22 05:07:19;;;;;;;4.45;4.05;;;;;;;;;;4980850;28;20167;-80
2023/11/22 05:09:45;;;;;;;2.63;2.03;;;;;;;;;;4983967;28;20054;-78
2023/11/22 05:12:11;;;;;;;4.18;3.88;;;;;;;;;;4965864;28;20047;-77
2023/11/22 05:14:37;;;;;;;3.72;3.42;;;;;;;;;;4983889;28;20125;-79
2023/11/22 05:17:04;;;;;;;2.90;2.70;;;;;;;;;;4967301;28;20042;-78
2023/11/22 05:19:31;;;;;;;3.92;3.58;;;;;;;;;;4968191;28;20058;-80
2023/11/22 05:21:57;;;;;;;5.00;3.28;;;;;;;;;;4994774;28;20029;-81
2023/11/22 05:24:24;;;;;;;3.35;3.15;;;;;;;;;;4993283;28;20054;-78
2023/11/22 05:26:50;;;;;;;3.90;3.60;;;;;;;;;;4977363;28;20038;-81
2023/11/22 05:29:16;;;;;;;3.75;3.47;;;;;;;;;;4994332;28;20061;-80
2023/11/22 05:31:42;;;;;;;2.30;2.15;;;;;;;;;;5008858;28;20109;-80
2023/11/22 05:34:08;;;;;;;5.13;3.83;;;;;;;;;;5012963;28;20050;-80
2023/11/22 05:36:34;;;;;;;3.67;3.47;;;;;;;;;;4964923;28;20045;-81
2023/11/22 05:39:00;;;;;;;3.20;3.00;;;;;;;;;;5012680;28;20070;-80
2023/11/22 05:41:26;;;;;;;3.58;3.28;;;;;;;;;;5011801;28;20047;-81
2023/11/22 05:43:52;;;;;;;4.32;3.92;;;;;;;;;;5014623;28;20057;-81
2023/11/22 05:46:22;;;;;;;3.85;3.55;;;;;;;;;;4996556;28;20062;-80
2023/11/22 05:48:49;;;;;;;3.85;3.55;;;;;;;;;;4980110;28;20102;-80
2023/11/22 05:51:15;;;;;;;3.67;3.42;;;;;;;;;;5013854;28;20090;-81
2023/11/22 05:53:41;;;;;;;4.15;3.90;;;;;;;;;;4991959;28;20054;-80
2023/11/22 05:56:08;;;;;;;3.30;3.10;;;;;;;;;;5013146;28;20037;-79
2023/11/22 05:58:38;;;;;;;4.15;3.28;;;;;;;;;;4984355;28;20066;-77
2023/11/22 06:01:04;;;;;;;2.92;2.75;;;;;;;;;;4974253;28;20047;-77
2023/11/22 06:03:30;;;;;;;3.28;3.08;;;;;;;;;;4991749;28;20109;-78
2023/11/22 06:05:57;;;;;;;5.00;4.00;;;;;;;;;;4988713;28;20496;-77
2023/11/22 06:08:23;;;;;;;3.53;3.25;;;;;;;;;;4977340;28;20183;-76
2023/11/22 06:10:49;;;;;;;4.28;3.97;;;;;;;;;;4981021;28;20077;-77
2023/11/22 06:13:15;;;;;;;3.95;3.65;;;;;;;;;;4969752;28;20596;-76
2023/11/22 06:15:42;;;;;;;2.55;2.45;;;;;;;;;;4987739;28;20417;-76
2023/11/22 06:18:08;;;;;;;2.97;2.72;;;;;;;;;;4962181;28;20117;-76
2023/11/22 06:20:34;;;;;;;10.50;2.97;;;;;;;;;;4976298;28;20141;-77
2023/11/22 06:22:59;;;;;;;7.68;2.83;;;;;;;;;;4987542;28;20054;-75
2023/11/22 06:25:26;;;;;;;6.55;3.60;;;;;;;;;;4977712;28;20066;-76
2023/11/22 06:27:52;;;;;;;3.83;2.72;;;;;;;;;;4954409;28;20133;-78
2023/11/22 06:30:19;;;;;;;3.85;3.58;;;;;;;;;;4981132;28;20084;-77
2023/11/22 06:32:45;;;;;;;3.75;3.55;;;;;;;;;;4962790;28;20043;-77
2023/11/22 06:35:14;;;;;;;3.10;2.95;;;;;;;;;;4972162;28;20129;-77
2023/11/22 06:37:40;;;;;;;4.53;3.40;;;;;;;;;;4972952;28;20038;-79
2023/11/22 06:40:08;;;;;;;3.47;3.28;;;;;;;;;;4948509;28;20053;-75
2023/11/22 06:42:34;;;;;;;3.53;2.67;;;;;;;;;;4961106;28;20473;-77
2023/11/22 06:45:00;;;;;;;2.92;2.60;;;;;;;;;;4959252;28;20161;-77
2023/11/22 06:47:29;;;;;;;3.20;3.00;;;;;;;;;;4960257;28;20125;-77
2023/11/22 06:49:55;;;;;;;3.03;2.83;;;;;;;;;;4982613;28;20070;-79
2023/11/22 06:52:21;;;;;;;3.25;3.05;;;;;;;;;;4955431;28;20035;-81
2023/11/22 06:54:47;;;;;;;2.88;2.67;;;;;;;;;;4990275;28;20142;-80
2023/11/22 06:57:13;;;;;;;3.47;3.28;;;;;;;;;;4995033;28;20477;-79
2023/11/22 06:59:39;;;;;;;3.40;2.65;;;;;;;;;;4989100;28;20039;-79
2023/11/22 07:02:07;;;;;;;3.13;2.70;;;;;;;;;;4993266;28;20043;-80
2023/11/22 07:04:33;;;;;;;3.85;3.65;;;;;;;;;;4938537;28;20049;-79
2023/11/22 07:07:00;;;;;;;3.50;3.30;;;;;;;;;;4986337;28;20081;-80
2023/11/22 07:09:26;;;;;;;3.33;3.13;;;;;;;;;;4988503;28;20049;-79
2023/11/22 07:11:52;;;;;;;3.40;3.13;;;;;;;;;;4990433;28;20042;-79
2023/11/22 07:14:19;;;;;;;2.40;2.30;;;;;;;;;;4983620;28;20125;-81
2023/11/22 07:16:45;;;;;;;4.30;4.00;;;;;;;;;;4999024;28;20049;-81
2023/11/22 07:19:12;;;;;;;2.63;2.42;;;;;;;;;;4980124;28;20533;-77
2023/11/22 07:21:39;;;;;;;3.47;3.17;;;;;;;;;;4971007;28;20045;-79
2023/11/22 07:24:08;;;;;;;2.78;2.63;;;;;;;;;;4974199;28;20417;-78
2023/11/22 07:26:34;;;;;;;2.83;2.63;;;;;;;;;;4987399;28;20141;-78
2023/11/22 07:29:01;;;;;;;2.20;2.10;;;;;;;;;;4981531;28;20499;-77
2023/11/22 07:31:27;;;;;;;2.92;2.83;;;;;;;;;;4973968;28;20047;-78
2023/11/22 07:33:53;;;;;;;4.70;2.65;;;;;;;;;;4972765;28;20464;-78
2023/11/22 07:36:20;;;;;;;2.42;2.33;;;;;;;;;;4986038;28;20071;-79
2023/11/22 07:38:48;;;;;;;2.40;2.30;;;;;;;;;;4960248;28;20057;-79
2023/11/22 07:41:15;;;;;;;2.50;2.38;;;;;;;;;;4979553;28;20046;-78
2023/11/22 07:43:41;;;;;;;2.90;2.70;;;;;;;;;;4975199;28;20039;-78
2023/11/22 07:46:12;;;;;;;2.95;2.78;;;;;;;;;;4977430;28;20042;-76
2023/11/22 07:48:47;;;;;;;1.83;1.80;;;;;;;;;;4977026;28;20035;-81
2023/11/22 07:51:15;;;;;;;2.35;2.25;;;;;;;;;;4984893;28;20039;-80
2023/11/22 07:53:41;;;;;;;1.70;1.60;;;;;;;;;;4966457;28;20097;-79
2023/11/22 07:56:08;;;;;;;2.20;2.10;;;;;;;;;;4981654;28;20055;-80
2023/11/22 07:58:34;;;;;;;4.00;2.08;;;;;;;;;;4994741;28;20046;-82
2023/11/22 08:01:02;;;;;;;2.50;2.33;;;;;;;;;;4970923;28;20046;-80
2023/11/22 08:03:28;;;;;;;2.78;2.58;;;;;;;;;;4985767;28;20477;-81
2023/11/22 08:05:55;;;;;;;2.03;1.92;;;;;;;;;;4995803;28;20045;-80
2023/11/22 08:08:21;;;;;;;6.97;2.72;;;;;;;;;;4987530;28;20043;-78
2023/11/22 08:10:48;;;;;;;2.83;2.63;;;;;;;;;;4992403;28;20042;-79
2023/11/22 08:13:16;;;;;;;3.67;3.33;;;;;;;;;;4988502;28;20105;-80
2023/11/22 08:15:42;;;;;;;2.50;2.30;;;;;;;;;;4995777;28;20076;-81
2023/11/22 08:18:08;;;;;;;2.67;2.53;;;;;;;;;;4959060;28;20039;-79
2023/11/22 08:20:34;;;;;;;2.63;2.45;;;;;;;;;;4961485;28;20126;-79
2023/11/22 08:23:00;;;;;;;2.80;2.60;;;;;;;;;;4970868;28;20036;-79
2023/11/22 08:25:26;;;;;;;1.67;1.55;;;;;;;;;;4964274;28;20066;-81
2023/11/22 08:27:53;;;;;;;2.80;2.60;;;;;;;;;;4982765;28;21020;-80
2023/11/22 08:30:19;;;;;;;2.65;2.53;;;;;;;;;;4987075;28;20050;-77
2023/11/22 08:32:51;;;;;;;3.20;2.25;;;;;;;;;;4976027;28;20536;-78
2023/11/22 08:35:16;;;;;;;;;;;;;;;;;;4959791;28;20085;-78
2023/11/22 08:37:43;;;;;;;2.58;2.47;;;;;;;;;;4972765;28;19921;-77
2023/11/22 08:40:11;;;;;;;2.35;2.25;;;;;;;;;;4972763;28;20069;-78
2023/11/22 08:42:37;;;;;;;1.80;1.70;;;;;;;;;;4976851;28;20038;-79
2023/11/22 08:45:03;;;;;;;2.40;2.30;;;;;;;;;;4982101;28;20066;-79
2023/11/22 08:47:31;;;;;;;1.70;1.70;;;;;;;;;;4974613;28;20047;-80
2023/11/22 08:49:58;;;;;;;3.08;2.38;;;;;;;;;;4976658;28;20038;-77
2023/11/22 08:52:24;;;;;;;2.30;2.20;;;;;;;;;;4980228;28;20051;-76
2023/11/22 08:54:51;;;;;;;2.70;2.50;;;;;;;;;;4979448;28;20039;-79
2023/11/22 08:57:18;;;;;;;4.75;2.95;;;;;;;;;;4998707;28;20049;-80
2023/11/22 08:59:43;;;;;;;2.88;2.67;;;;;;;;;;4995575;28;20034;-82
2023/11/22 09:02:12;;;;;;;5.22;3.30;;;;;;;;;;4994755;28;20053;-81
2023/11/22 09:04:38;;;;;;;3.45;3.15;;;;;;;;;;4970782;28;20042;-79
2023/11/22 09:07:05;;;;;;;6.55;3.13;;;;;;;;;;4984677;28;20485;-78
2023/11/22 09:09:32;;;;;;;3.53;2.45;;;;;;;;;;4984395;28;20038;-79
2023/11/22 09:11:58;;;;;;;3.45;3.15;;;;;;;;;;4971705;28;20074;-78
2023/11/22 09:14:24;;;;;;;4.57;3.35;;;;;;;;;;4986151;28;20042;-77
2023/11/22 09:16:56;;;;;;;2.95;2.75;;;;;;;;;;4983098;28;20049;-77
2023/11/22 09:19:23;;;;;;;7.38;3.47;;;;;;;;;;4985483;28;20034;-77
2023/11/22 09:21:49;;;;;;;3.17;2.85;;;;;;;;;;4998183;28;20046;-78
2023/11/22 09:24:14;;;;;;;2.35;2.15;;;;;;;;;;4995549;28;20136;-76
2023/11/22 09:26:42;;;;;;;2.38;2.28;;;;;;;;;;4994429;28;20043;-77
2023/11/22 09:29:08;;;;;;;3.15;2.85;;;;;;;;;;4982650;28;20062;-77
2023/11/22 09:31:38;;;;;;;2.83;2.53;;;;;;;;;;4974490;28;20525;-77
2023/11/22 09:34:04;;;;;;;3.53;3.33;;;;;;;;;;4965753;28;20042;-77
2023/11/22 09:36:33;;;;;;;5.93;2.55;;;;;;;;;;4985751;28;20595;-78
2023/11/22 09:39:00;;;;;;;2.67;2.03;;;;;;;;;;4974142;28;20070;-78
2023/11/22 09:41:26;;;;;;;4.50;3.65;;;;;;;;;;4979964;28;20046;-78
2023/11/22 09:43:55;;;;;;;3.15;2.85;;;;;;;;;;4975617;28;20058;-78
2023/11/22 09:46:23;;;;;;;4.18;3.88;;;;;;;;;;4976375;28;20090;-76
2023/11/22 09:48:55;;;;;;;3.35;3.05;;;;;;;;;;4971545;28;20054;-76
2023/11/22 09:51:24;;;;;;;4.05;2.78;;;;;;;;;;4963723;28;20761;-75
2023/11/22 09:53:56;;;;;;;2.53;2.33;;;;;;;;;;4977738;28;20402;-77
2023/11/22 09:56:25;;;;;;;3.35;3.13;;;;;;;;;;4979181;28;20129;-79
2023/11/22 09:58:55;;;;;;;2.38;2.28;;;;;;;;;;4977789;28;20039;-78
2023/11/22 10:01:22;;;;;;;5.32;3.35;;;;;;;;;;4930858;28;20042;-77
2023/11/22 10:03:48;;;;;;;3.22;2.33;;;;;;;;;;4972326;28;20074;-77
2023/11/22 10:06:17;;;;;;;3.83;3.55;;;;;;;;;;4958965;28;20077;-79
2023/11/22 10:08:46;;;;;;;4.13;3.83;;;;;;;;;;4979031;28;20449;-77
2023/11/22 10:11:13;;;;;;;4.18;3.78;;;;;;;;;;4969092;28;20034;-76
2023/11/22 10:13:39;;;;;;;5.47;3.63;;;;;;;;;;4960128;28;20551;-79
2023/11/22 10:16:18;;;;;;;3.60;3.33;;;;;;;;;;4961681;28;20069;-79
2023/11/22 10:18:46;;;;;;;4.28;3.55;;;;;;;;;;4965239;28;20046;-77
2023/11/22 10:21:28;;;;;;;2.80;2.60;;;;;;;;;;4977217;28;20049;-80
2023/11/22 10:23:57;;;;;;;5.72;5.32;;;;;;;;;;4982389;28;20121;-76
2023/11/22 10:26:23;;;;;;;3.35;3.05;;;;;;;;;;4960510;28;20057;-76
2023/11/22 10:28:53;;;;;;;6.53;3.60;;;;;;;;;;4953190;28;20042;-75
2023/11/22 10:31:21;;;;;;;4.10;3.80;;;;;;;;;;4969856;28;20059;-76
2023/11/22 10:33:47;;;;;;;2.83;2.65;;;;;;;;;;4966628;28;20552;-75
2023/11/22 10:36:14;;;;;;;3.00;2.80;;;;;;;;;;4965337;28;20038;-75
2023/11/22 10:38:41;;;;;;;4.35;4.05;;;;;;;;;;4934098;28;20047;-74
2023/11/22 10:41:07;;;;;;;2.33;2.22;;;;;;;;;;4961496;28;20417;-77
2023/11/22 10:43:34;;;;;;;4.47;2.25;;;;;;;;;;4964219;28;20070;-76
2023/11/22 10:46:08;;;;;;;4.10;3.70;;;;;;;;;;4960690;28;20072;-78
2023/11/22 10:48:35;;;;;;;9.02;5.93;;;;;;;;;;4964381;28;20038;-76
2023/11/22 10:51:05;;;;;;;4.38;4.07;;;;;;;;;;4947459;28;20121;-75
2023/11/22 10:53:33;;;;;;;4.03;3.63;;;;;;;;;;4974334;28;20101;-76
2023/11/22 10:56:03;;;;;;;8.20;3.45;;;;;;;;;;4979313;28;20038;-75
2023/11/22 10:58:29;;;;;;;4.55;3.70;;;;;;;;;;4952816;28;20125;-77
2023/11/22 11:00:55;;;;;;;4.60;4.22;;;;;;;;;;4972794;28;20039;-77
2023/11/22 11:03:25;;;;;;;5.38;4.88;;;;;;;;;;4969399;28;20039;-77
2023/11/22 11:05:56;;;;;;;3.72;2.78;;;;;;;;;;4947572;28;20069;-78
2023/11/22 11:08:22;;;;;;;4.55;4.20;;;;;;;;;;4954577;28;20085;-77
2023/11/22 11:10:49;;;;;;;5.15;4.75;;;;;;;;;;4981662;28;20046;-76
2023/11/22 11:13:15;;;;;;;7.75;4.82;;;;;;;;;;4975188;28;20137;-76
2023/11/22 11:15:43;;;;;;;5.97;4.03;;;;;;;;;;4975982;28;20125;-76
2023/11/22 11:18:12;;;;;;;5.60;4.38;;;;;;;;;;4974854;28;20282;-78
2023/11/22 11:20:49;;;;;;;3.70;3.40;;;;;;;;;;4965054;28;20085;-79
2023/11/22 11:23:16;;;;;;;5.57;3.65;;;;;;;;;;4966981;28;20122;-75
2023/11/22 11:25:43;;;;;;;3.42;3.22;;;;;;;;;;4970743;28;20042;-77
2023/11/22 11:28:12;;;;;;;3.83;3.53;;;;;;;;;;4953064;28;20050;-78
2023/11/22 11:30:43;;;;;;;5.55;4.13;;;;;;;;;;4963796;28;20079;-77
2023/11/22 11:33:09;;;;;;;4.32;3.92;;;;;;;;;;4972532;28;20114;-77
2023/11/22 11:35:39;;;;;;;7.15;4.70;;;;;;;;;;4985202;28;20070;-76
2023/11/22 11:38:08;;;;;;;5.65;4.88;;;;;;;;;;4983597;28;20501;-76
2023/11/22 11:40:34;;;;;;;7.57;5.07;;;;;;;;;;4969643;28;20039;-78
2023/11/22 11:43:01;;;;;;;6.28;5.45;;;;;;;;;;4983723;28;20526;-80
2023/11/22 11:45:27;;;;;;;5.32;4.07;;;;;;;;;;4980582;28;20051;-77
2023/11/22 11:47:53;;;;;;;4.72;4.32;;;;;;;;;;4983176;28;20050;-77
2023/11/22 11:50:23;;;;;;;6.70;4.75;;;;;;;;;;4986451;28;20042;-72
2023/11/22 11:52:49;;;;;;;3.83;3.53;;;;;;;;;;4991245;28;20255;-77
2023/11/22 11:55:15;;;;;;;5.72;4.18;;;;;;;;;;4988293;28;20056;-77
2023/11/22 11:57:41;;;;;;;3.60;2.95;;;;;;;;;;4977822;28;20082;-76
2023/11/22 12:00:09;;;;;;;5.03;3.65;;;;;;;;;;4964780;28;20051;-77
2023/11/22 12:02:38;;;;;;;6.32;4.47;;;;;;;;;;4978054;28;20121;-79
2023/11/22 12:05:08;;;;;;;4.88;3.78;;;;;;;;;;4981600;28;20202;-77
2023/11/22 12:07:35;;;;;;;4.57;4.15;;;;;;;;;;4968124;28;20042;-78
2023/11/22 12:10:02;;;;;;;5.75;4.57;;;;;;;;;;4982707;28;20035;-77
2023/11/22 12:12:29;;;;;;;10.60;4.70;;;;;;;;;;4985481;28;20432;-78
2023/11/22 12:14:55;;;;;;;4.20;3.90;;;;;;;;;;4985411;28;20046;-81
2023/11/22 12:17:22;;;;;;;5.13;3.28;;;;;;;;;;4973571;28;20053;-79
2023/11/22 12:19:48;;;;;;;10.70;4.97;;;;;;;;;;4972404;28;20496;-76
2023/11/22 12:22:16;;;;;;;4.78;4.30;;;;;;;;;;4966521;28;20042;-75
2023/11/22 12:24:43;;;;;;;6.13;4.60;;;;;;;;;;4956075;28;20070;-76
2023/11/22 12:27:10;;;;;;;7.53;3.55;;;;;;;;;;4990003;28;20133;-74
2023/11/22 12:29:36;;;;;;;4.72;4.32;;;;;;;;;;4984373;28;20114;-76
2023/11/22 12:32:02;;;;;;;31.15;5.55;;;;;;;;;;4974517;28;20117;-76
2023/11/22 12:34:30;;;;;;;4.57;4.28;;;;;;;;;;4963216;28;20058;-82
2023/11/22 12:36:56;;;;;;;5.18;3.90;;;;;;;;;;5003004;28;20039;-76
2023/11/22 12:39:22;;;;;;;4.22;3.28;;;;;;;;;;4979560;28;20077;-78
2023/11/22 12:41:50;;;;;;;3.83;3.53;;;;;;;;;;4978035;28;20370;-79
2023/11/22 12:44:16;;;;;;;3.25;3.05;;;;;;;;;;4978067;28;21074;-79
2023/11/22 12:46:49;;;;;;;3.92;2.92;;;;;;;;;;4988194;28;20062;-76
2023/11/22 12:49:16;;;;;;;3.42;2.83;;;;;;;;;;4976972;28;20069;-78
2023/11/22 12:51:46;;;;;;;3.55;3.33;;;;;;;;;;4983258;28;20048;-77
2023/11/22 12:54:12;;;;;;;3.55;3.25;;;;;;;;;;4983345;28;20110;-77
2023/11/22 12:56:38;;;;;;;2.67;2.53;;;;;;;;;;4966909;28;20038;-76
2023/11/22 12:59:04;;;;;;;3.83;3.42;;;;;;;;;;4991319;28;20124;-76
2023/11/22 13:01:30;;;;;;;3.63;3.30;;;;;;;;;;4975180;28;20039;-77
2023/11/22 13:03:56;;;;;;;4.45;3.58;;;;;;;;;;4981777;28;20038;-75
2023/11/22 13:06:24;;;;;;;7.95;2.75;;;;;;;;;;4971164;28;20043;-76
2023/11/22 13:08:50;;;;;;;3.40;3.20;;;;;;;;;;4979493;28;20157;-76
2023/11/22 13:11:18;;;;;;;4.82;4.53;;;;;;;;;;4984693;28;20038;-77
2023/11/22 13:13:46;;;;;;;4.28;3.88;;;;;;;;;;4969105;28;20064;-78
2023/11/22 13:16:13;;;;;;;6.60;4.18;;;;;;;;;;4989725;28;20050;-78
2023/11/22 13:18:39;;;;;;;6.20;4.13;;;;;;;;;;4954903;28;20521;-78
2023/11/22 13:21:05;;;;;;;4.78;4.30;;;;;;;;;;4961515;28;20473;-75
2023/11/22 13:23:32;;;;;;;10.60;3.95;;;;;;;;;;4975983;28;20039;-77
2023/11/22 13:25:59;;;;;;;3.03;2.53;;;;;;;;;;4981644;28;20053;-79
2023/11/22 13:28:25;;;;;;;5.78;3.05;;;;;;;;;;4970974;28;20038;-76
2023/11/22 13:30:51;;;;;;;5.25;3.47;;;;;;;;;;4978299;28;20050;-74
2023/11/22 13:33:18;;;;;;;3.72;3.45;;;;;;;;;;4967135;28;20047;-78
2023/11/22 13:35:44;;;;;;;8.05;3.85;;;;;;;;;;4968908;28;20643;-76
2023/11/22 13:38:11;;;;;;;3.03;2.83;;;;;;;;;;4981738;28;20035;-76
2023/11/22 13:40:39;;;;;;;6.50;4.05;;;;;;;;;;4984456;28;20135;-77
2023/11/22 13:43:05;;;;;;;6.45;3.65;;;;;;;;;;4948079;28;20046;-77
2023/11/22 13:45:31;;;;;;;3.20;3.00;;;;;;;;;;4970755;28;20201;-76
2023/11/22 13:48:00;;;;;;;5.15;4.20;;;;;;;;;;4979671;28;20560;-75
2023/11/22 13:50:26;;;;;;;3.03;2.83;;;;;;;;;;4969726;28;20053;-77
2023/11/22 13:52:54;;;;;;;3.90;3.53;;;;;;;;;;4965384;28;20413;-76
2023/11/22 13:55:23;;;;;;;5.88;4.45;;;;;;;;;;4970387;28;20531;-77
2023/11/22 13:57:53;;;;;;;5.05;4.25;;;;;;;;;;4966191;28;20038;-76
2023/11/22 14:00:22;;;;;;;3.90;3.60;;;;;;;;;;4973054;28;20098;-76
2023/11/22 14:02:51;;;;;;;3.50;3.15;;;;;;;;;;4984611;28;20100;-77
2023/11/22 14:05:17;;;;;;;9.95;3.42;;;;;;;;;;4980221;28;20061;-76
2023/11/22 14:07:46;;;;;;;3.65;3.42;;;;;;;;;;4982968;28;20031;-79
2023/11/22 14:10:16;;;;;;;6.68;3.10;;;;;;;;;;4985510;28;20576;-79
2023/11/22 14:12:42;;;;;;;6.35;4.18;;;;;;;;;;4977652;28;20043;-78
2023/11/22 14:15:10;;;;;;;2.35;2.25;;;;;;;;;;4977443;28;20055;-79
2023/11/22 14:17:36;;;;;;;4.38;4.00;;;;;;;;;;4968561;28;20066;-81
2023/11/22 14:20:05;;;;;;;6.38;3.30;;;;;;;;;;4964043;28;20506;-78
2023/11/22 14:22:31;;;;;;;2.83;2.63;;;;;;;;;;4962984;28;20046;-78
2023/11/22 14:24:57;;;;;;;3.60;3.20;;;;;;;;;;4960502;28;20535;-78
2023/11/22 14:27:24;;;;;;;3.42;3.15;;;;;;;;;;4979905;28;20125;-80
2023/11/22 14:29:50;;;;;;;3.65;3.35;;;;;;;;;;4976332;28;20118;-77
2023/11/22 14:32:16;;;;;;;3.58;3.28;;;;;;;;;;4988530;28;20051;-78
2023/11/22 14:34:45;;;;;;;4.68;4.28;;;;;;;;;;4944525;28;20058;-81
2023/11/22 14:37:12;;;;;;;3.58;3.38;;;;;;;;;;4985431;28;20038;-79
2023/11/22 14:39:38;;;;;;;3.33;3.13;;;;;;;;;;4954902;28;20513;-80
2023/11/22 14:42:06;;;;;;;3.50;3.20;;;;;;;;;;4981601;28;20042;-76
2023/11/22 14:44:32;;;;;;;6.38;5.78;;;;;;;;;;4965718;28;20178;-77